Weather at Sydney Kingsford Smith International Airport

Public forecast

Using degrees Celsius for public forecast. Weather courtesy of forecast.io.

Current aviation weather report (METAR) for Sydney Kingsford Smith International Airport

Retrieved 2022/01/19 14:00 UTC (12 minutes ago):

YSSY 191400Z 15017KT 9999 FEW035 BKN060 22/13 Q1024

Aviation forecast (TAF) for Sydney Kingsford Smith International Airport

Retrieved 2022/01/19 15:15 UTC (0 seconds ago):

TAF YSSY 191412Z 1915/2018 15018KT 9999 -SHRA SCT035 FM192200 14022KT 9999 NSW SCT040 FM201000 13014KT 9999 SCT045